Time;durP1;ratioP1;P1;durP2;ratioP2;P2;SDS_P1;SDS_P2;PMS_P1;PMS_P2;Temp;Humidity;BMP_temperature;BMP_pressure;BME280_temperature;BME280_humidity;BME280_pressure;Samples;Min_cycle;Max_cycle;Signal;HPM_P1;HPM_P2
2023/10/26 00:01:13;;;;;;;;;;;9.60;99.90;;;;;;5045814;28;19920;-92
2023/10/26 00:03:39;;;;;;;;;;;9.70;99.90;;;;;;5042588;28;19967;-91
2023/10/26 00:06:04;;;;;;;;;;;9.60;99.90;;;;;;5042348;28;19920;-91
2023/10/26 00:08:30;;;;;;;;;;;9.70;99.90;;;;;;5058314;28;19924;-91
2023/10/26 00:10:56;;;;;;;;;;;9.60;99.90;;;;;;5062570;28;19920;-91
2023/10/26 00:13:21;;;;;;;;;;;9.60;99.90;;;;;;5058301;28;19927;-91
2023/10/26 00:15:47;;;;;;;;;;;9.60;99.90;;;;;;5058127;28;19924;-92
2023/10/26 00:18:14;;;;;;;;;;;9.60;99.90;;;;;;5058959;28;19920;-92
2023/10/26 00:20:40;;;;;;;;;;;9.60;99.90;;;;;;5059184;28;19927;-92
2023/10/26 00:23:07;;;;;;;;;;;9.60;99.90;;;;;;5043118;28;19920;-92
2023/10/26 00:25:32;;;;;;;;;;;9.50;99.90;;;;;;5046338;28;19924;-92
2023/10/26 00:27:58;;;;;;;;;;;9.60;99.90;;;;;;5041927;28;19920;-91
2023/10/26 00:30:24;;;;;;;;;;;9.60;99.90;;;;;;5059406;28;19942;-91
2023/10/26 00:32:50;;;;;;;;;;;9.60;99.90;;;;;;5076057;28;19999;-90
2023/10/26 00:35:15;;;;;;;;;;;9.50;99.90;;;;;;5078619;28;19920;-92
2023/10/26 00:37:41;;;;;;;;;;;9.50;99.90;;;;;;5062156;28;20573;-92
2023/10/26 00:40:07;;;;;;;;;;;9.50;99.90;;;;;;5077371;28;19924;-92
2023/10/26 00:42:33;;;;;;;;;;;9.60;99.90;;;;;;5062038;28;19920;-90
2023/10/26 00:44:58;;;;;;;;;;;9.60;99.90;;;;;;5082291;28;19990;-88
2023/10/26 00:47:25;;;;;;;;;;;9.50;99.90;;;;;;5077342;28;19965;-91
2023/10/26 00:49:50;;;;;;;;;;;8.40;99.90;;;;;;5061637;28;19920;-90
2023/10/26 00:52:16;;;;;;;;;;;9.50;99.90;;;;;;5044085;28;19924;-88
2023/10/26 00:54:42;;;;;;;;;;;9.50;99.90;;;;;;5063423;28;19921;-90
2023/10/26 00:57:08;;;;;;;;;;;9.60;99.90;;;;;;5072636;28;19931;-91
2023/10/26 00:59:34;;;;;;;;;;;9.60;99.90;;;;;;5060387;28;20427;-93
2023/10/26 01:02:00;;;;;;;;;;;9.60;99.90;;;;;;5062397;28;20036;-92
2023/10/26 01:04:26;;;;;;;;;;;9.50;99.90;;;;;;5063343;28;20302;-92
2023/10/26 01:06:52;;;;;;;;;;;9.60;99.90;;;;;;5064835;28;19920;-91
2023/10/26 01:09:19;;;;;;;;;;;9.50;99.90;;;;;;5047780;28;19924;-92
2023/10/26 01:11:45;;;;;;;;;;;9.50;99.90;;;;;;5047672;28;19999;-91
2023/10/26 01:14:11;;;;;;;;;;;9.60;99.90;;;;;;5079081;28;20009;-91
2023/10/26 01:16:36;;;;;;;;;;;9.50;99.90;;;;;;5046286;28;19959;-91
2023/10/26 01:19:03;;;;;;;;;;;9.50;99.90;;;;;;5060930;28;19923;-91
2023/10/26 01:21:29;;;;;;;;;;;9.60;99.90;;;;;;5048540;28;19985;-91
2023/10/26 01:23:55;;;;;;;;;;;9.60;99.90;;;;;;5073475;28;19924;-90
2023/10/26 01:26:20;;;;;;;;;;;9.60;99.90;;;;;;5064002;28;19919;-88
2023/10/26 01:28:46;;;;;;;;;;;9.60;99.90;;;;;;5064323;28;19920;-84
2023/10/26 01:31:18;;;;;;;;;;;9.60;99.90;;;;;;5053673;28;20021;-86
2023/10/26 01:33:44;;;;;;;;;;;9.70;99.90;;;;;;5057293;28;19920;-93
2023/10/26 01:36:09;;;;;;;;;;;9.70;99.90;;;;;;5069706;28;20384;-92
2023/10/26 01:38:35;;;;;;;;;;;9.70;99.90;;;;;;5049649;28;19965;-93
2023/10/26 01:41:01;;;;;;;;;;;9.60;99.90;;;;;;5078142;28;19926;-94
2023/10/26 01:43:26;;;;;;;;;;;9.70;99.90;;;;;;5044006;28;19927;-90
2023/10/26 01:45:52;;;;;;;;;;;9.70;99.90;;;;;;5051559;28;19923;-92
2023/10/26 01:48:18;;;;;;;;;;;9.70;99.90;;;;;;5065802;28;20343;-94
2023/10/26 01:50:43;;;;;;;;;;;9.70;99.90;;;;;;5057001;28;19973;-93
2023/10/26 01:53:09;;;;;;;;;;;9.70;99.90;;;;;;5028743;28;20011;-93
2023/10/26 01:55:35;;;;;;;;;;;9.70;99.90;;;;;;5022437;28;20379;-92
2023/10/26 01:58:00;;;;;;;;;;;9.80;99.90;;;;;;5056815;28;19944;-93
2023/10/26 02:00:26;;;;;;;;;;;9.70;99.90;;;;;;5023180;28;20011;-91
2023/10/26 02:02:51;;;;;;;;;;;9.70;99.90;;;;;;5056882;28;19927;-93
2023/10/26 02:05:17;;;;;;;;;;;9.70;99.90;;;;;;5038294;28;19974;-94
2023/10/26 02:07:43;;;;;;;;;;;9.70;99.90;;;;;;5058172;28;19920;-94
2023/10/26 02:10:12;;;;;;;;;;;8.80;99.90;;;;;;5012996;28;19927;-94
2023/10/26 02:12:38;;;;;;;;;;;9.70;99.90;;;;;;5073615;28;19920;-92
2023/10/26 02:15:04;;;;;;;;;;;9.70;99.90;;;;;;5023911;28;19921;-93
2023/10/26 02:17:29;;;;;;;;;;;9.60;99.90;;;;;;5070561;28;19943;-92
2023/10/26 02:19:55;;;;;;;;;;;9.70;99.90;;;;;;5041807;28;20280;-93
2023/10/26 02:22:20;;;;;;;;;;;9.60;99.90;;;;;;5059420;28;19921;-92
2023/10/26 02:24:46;;;;;;;;;;;9.60;99.90;;;;;;5059494;28;19970;-93
2023/10/26 02:27:11;;;;;;;;;;;9.60;99.90;;;;;;5060202;28;19921;-93
2023/10/26 02:29:37;;;;;;;;;;;9.50;99.90;;;;;;5042225;28;19924;-92
2023/10/26 02:32:03;;;;;;;;;;;10.00;99.90;;;;;;5045573;28;19947;-92
2023/10/26 02:34:28;;;;;;;;;;;9.50;99.90;;;;;;5041778;28;19927;-93
2023/10/26 02:36:54;;;;;;;;;;;9.60;99.90;;;;;;5049450;28;19970;-92
2023/10/26 02:39:20;;;;;;;;;;;9.50;99.90;;;;;;5038909;28;19978;-92
2023/10/26 02:41:45;;;;;;;;;;;9.50;99.90;;;;;;5055028;28;19920;-91
2023/10/26 02:44:13;;;;;;;;;;;9.50;99.90;;;;;;5030250;28;19924;-92
2023/10/26 02:46:39;;;;;;;;;;;9.50;99.90;;;;;;5062497;28;19971;-92
2023/10/26 02:49:05;;;;;;;;;;;9.50;99.90;;;;;;5056760;28;19963;-93
2023/10/26 02:51:30;;;;;;;;;;;9.50;99.90;;;;;;5056359;28;19925;-92
2023/10/26 02:53:56;;;;;;;;;;;9.50;99.90;;;;;;5056656;28;20576;-93
2023/10/26 02:56:21;;;;;;;;;;;9.50;99.90;;;;;;5065006;28;19973;-93
2023/10/26 02:58:47;;;;;;;;;;;9.50;99.90;;;;;;5020789;28;19931;-92
2023/10/26 03:01:13;;;;;;;;;;;9.50;99.90;;;;;;5020732;28;19921;-92
2023/10/26 03:03:39;;;;;;;;;;;9.40;99.90;;;;;;5073245;28;19928;-92
2023/10/26 03:06:04;;;;;;;;;;;9.50;99.90;;;;;;5039990;28;20275;-91
2023/10/26 03:08:30;;;;;;;;;;;9.50;99.90;;;;;;5055961;28;19920;-92
2023/10/26 03:10:55;;;;;;;;;;;9.50;99.90;;;;;;5036410;28;20661;-93
2023/10/26 03:13:21;;;;;;;;;;;10.10;99.90;;;;;;5056107;28;19927;-92
2023/10/26 03:15:47;;;;;;;;;;;9.50;99.90;;;;;;5075033;28;19932;-92
2023/10/26 03:18:14;;;;;;;;;;;9.50;99.90;;;;;;5073525;28;19920;-91
2023/10/26 03:20:40;;;;;;;;;;;9.50;99.90;;;;;;5038886;28;19920;-93
2023/10/26 03:23:05;;;;;;;;;;;9.80;99.90;;;;;;5031312;28;20002;-92
2023/10/26 03:25:31;;;;;;;;;;;9.50;99.90;;;;;;5072369;28;19963;-94
2023/10/26 03:27:56;;;;;;;;;;;9.40;99.90;;;;;;5056810;28;20053;-92
2023/10/26 03:30:22;;;;;;;;;;;9.50;99.90;;;;;;5069293;28;20020;-92
2023/10/26 03:32:47;;;;;;;;;;;10.80;99.90;;;;;;5031755;28;19971;-93
2023/10/26 03:35:13;;;;;;;;;;;9.40;99.90;;;;;;5024100;28;19921;-92
2023/10/26 03:37:39;;;;;;;;;;;9.40;99.90;;;;;;5073630;28;20276;-92
2023/10/26 03:40:05;;;;;;;;;;;9.40;99.90;;;;;;5038253;28;19977;-90
2023/10/26 03:42:31;;;;;;;;;;;9.40;99.90;;;;;;5058320;28;19928;-89
2023/10/26 03:44:56;;;;;;;;;;;9.50;99.90;;;;;;5044547;28;19928;-92
2023/10/26 03:47:22;;;;;;;;;;;9.40;99.90;;;;;;5067523;28;20079;-88
2023/10/26 03:49:51;;;;;;;;;;;9.30;99.90;;;;;;5041238;28;19990;-89
2023/10/26 03:52:18;;;;;;;;;;;9.30;99.90;;;;;;5073387;28;20006;-90
2023/10/26 03:54:44;;;;;;;;;;;10.10;99.90;;;;;;5040260;28;19967;-90
2023/10/26 03:57:10;;;;;;;;;;;9.30;99.90;;;;;;5059275;28;19927;-90
2023/10/26 03:59:35;;;;;;;;;;;9.30;99.90;;;;;;5063376;28;20408;-90
2023/10/26 04:02:01;;;;;;;;;;;9.30;99.90;;;;;;5055049;28;19927;-90
2023/10/26 04:04:27;;;;;;;;;;;9.30;99.90;;;;;;5061919;28;20387;-89
2023/10/26 04:06:52;;;;;;;;;;;9.30;99.90;;;;;;5027963;28;19920;-89
2023/10/26 04:09:18;;;;;;;;;;;9.80;99.90;;;;;;5039869;28;19920;-92
2023/10/26 04:11:45;;;;;;;;;;;9.30;99.90;;;;;;5076750;28;19927;-93
2023/10/26 04:14:10;;;;;;;;;;;9.30;99.90;;;;;;5043386;28;19920;-91
2023/10/26 04:16:36;;;;;;;;;;;9.20;99.90;;;;;;5062542;28;19921;-91
2023/10/26 04:19:02;;;;;;;;;;;9.30;99.90;;;;;;5056809;28;19921;-92
2023/10/26 04:21:27;;;;;;;;;;;9.20;99.90;;;;;;5059309;28;19969;-93
2023/10/26 04:23:53;;;;;;;;;;;9.20;99.90;;;;;;5026457;28;20059;-93
2023/10/26 04:26:19;;;;;;;;;;;9.20;99.90;;;;;;5027148;28;20051;-92
2023/10/26 04:28:44;;;;;;;;;;;9.20;99.90;;;;;;5042622;28;19927;-92
2023/10/26 04:31:10;;;;;;;;;;;9.20;99.90;;;;;;5071132;28;20434;-92
2023/10/26 04:33:35;;;;;;;;;;;9.30;99.90;;;;;;5042699;28;19925;-92
2023/10/26 04:36:02;;;;;;;;;;;9.20;99.90;;;;;;5043292;28;19927;-92
2023/10/26 04:38:28;;;;;;;;;;;9.30;99.90;;;;;;5059558;28;20286;-91
2023/10/26 04:40:54;;;;;;;;;;;9.30;99.90;;;;;;5026383;28;19921;-92
2023/10/26 04:43:19;;;;;;;;;;;9.30;99.90;;;;;;5043243;28;20348;-91
2023/10/26 04:45:46;;;;;;;;;;;9.20;99.90;;;;;;5026798;28;19928;-91
2023/10/26 04:48:12;;;;;;;;;;;9.20;99.90;;;;;;5044463;28;19920;-92
2023/10/26 04:50:37;;;;;;;;;;;9.20;99.90;;;;;;5059976;28;19931;-92
2023/10/26 04:53:04;;;;;;;;;;;9.20;99.90;;;;;;5060510;28;19928;-91
2023/10/26 04:55:35;;;;;;;;;;;9.80;99.90;;;;;;5027480;28;20377;-91
2023/10/26 04:58:01;;;;;;;;;;;9.20;99.90;;;;;;5026462;28;19956;-93
2023/10/26 05:00:27;;;;;;;;;;;9.10;99.90;;;;;;5043297;28;19931;-91
2023/10/26 05:02:53;;;;;;;;;;;9.10;99.90;;;;;;5076359;28;19921;-92
2023/10/26 05:05:18;;;;;;;;;;;9.10;99.90;;;;;;5076696;28;19968;-92
2023/10/26 05:07:44;;;;;;;;;;;9.00;99.90;;;;;;5059108;28;19956;-91
2023/10/26 05:10:10;;;;;;;;;;;9.00;99.90;;;;;;5075689;28;19926;-91
2023/10/26 05:12:35;;;;;;;;;;;9.10;99.90;;;;;;5021301;28;19921;-91
2023/10/26 05:15:01;;;;;;;;;;;9.10;99.90;;;;;;5033300;28;20248;-92
2023/10/26 05:17:27;;;;;;;;;;;9.10;99.90;;;;;;5059079;28;19932;-92
2023/10/26 05:19:52;;;;;;;;;;;9.00;99.90;;;;;;5059067;28;20272;-93
2023/10/26 05:22:19;;;;;;;;;;;9.00;99.90;;;;;;5059932;28;20003;-91
2023/10/26 05:24:45;;;;;;;;;;;9.00;99.90;;;;;;5025819;28;19931;-92
2023/10/26 05:27:10;;;;;;;;;;;9.10;99.90;;;;;;5045087;28;19920;-91
2023/10/26 05:29:36;;;;;;;;;;;9.30;99.90;;;;;;5058385;28;19927;-92
2023/10/26 05:32:02;;;;;;;;;;;9.10;99.90;;;;;;5083643;28;19924;-93
2023/10/26 05:34:28;;;;;;;;;;;9.00;99.90;;;;;;5074963;28;20544;-93
2023/10/26 05:36:53;;;;;;;;;;;9.10;99.90;;;;;;5054959;28;19920;-93
2023/10/26 05:39:19;;;;;;;;;;;9.10;99.90;;;;;;5056330;28;19921;-93
2023/10/26 05:41:45;;;;;;;;;;;9.10;99.90;;;;;;5031587;28;19990;-91
2023/10/26 05:44:10;;;;;;;;;;;9.00;99.90;;;;;;5041807;28;19925;-92
2023/10/26 05:46:36;;;;;;;;;;;9.00;99.90;;;;;;5027750;28;19965;-93
2023/10/26 05:49:02;;;;;;;;;;;9.00;99.90;;;;;;5069646;28;19920;-92
2023/10/26 05:51:29;;;;;;;;;;;9.00;99.90;;;;;;5028953;28;19960;-94
2023/10/26 05:53:54;;;;;;;;;;;9.10;99.90;;;;;;5059039;28;20418;-93
2023/10/26 05:56:20;;;;;;;;;;;9.00;99.90;;;;;;5028809;28;19964;-91
2023/10/26 05:58:47;;;;;;;;;;;9.00;99.90;;;;;;5058250;28;19927;-93
2023/10/26 06:01:13;;;;;;;;;;;8.90;99.90;;;;;;5042281;28;19927;-93
2023/10/26 06:03:39;;;;;;;;;;;8.90;99.90;;;;;;5027602;28;20007;-94
2023/10/26 06:06:05;;;;;;;;;;;8.80;99.90;;;;;;5043258;28;19920;-94
2023/10/26 06:08:30;;;;;;;;;;;9.70;99.90;;;;;;5048600;28;19990;-93
2023/10/26 06:10:57;;;;;;;;;;;8.60;99.90;;;;;;5021642;28;19932;-93
2023/10/26 06:13:24;;;;;;;;;;;8.50;99.90;;;;;;5056979;28;19921;-93
2023/10/26 06:15:50;;;;;;;;;;;8.40;99.90;;;;;;5026626;28;19960;-92
2023/10/26 06:18:15;;;;;;;;;;;8.40;99.90;;;;;;5027589;28;19943;-93
2023/10/26 06:20:41;;;;;;;;;;;8.30;99.90;;;;;;5027999;28;19960;-93
2023/10/26 06:23:07;;;;;;;;;;;;;;;;;;5052283;28;19978;-93
2023/10/26 06:25:36;;;;;;;;;;;8.20;99.90;;;;;;5041645;28;20412;-94
2023/10/26 06:28:03;;;;;;;;;;;8.10;99.90;;;;;;5043467;28;19920;-95
2023/10/26 06:30:29;;;;;;;;;;;8.10;99.90;;;;;;5027434;28;19920;-94
2023/10/26 06:32:54;;;;;;;;;;;8.00;99.90;;;;;;5027840;28;19920;-93
2023/10/26 06:35:20;;;;;;;;;;;8.00;99.90;;;;;;5028847;28;19927;-93
2023/10/26 06:37:46;;;;;;;;;;;8.00;99.90;;;;;;5059307;28;20390;-93
2023/10/26 06:40:11;;;;;;;;;;;7.90;99.90;;;;;;5023153;28;19921;-93
2023/10/26 06:42:37;;;;;;;;;;;7.90;99.90;;;;;;5025042;28;19924;-93
2023/10/26 06:45:03;;;;;;;;;;;7.90;99.90;;;;;;5044784;28;19924;-92
2023/10/26 06:47:29;;;;;;;;;;;7.90;99.90;;;;;;5052367;28;19920;-93
2023/10/26 06:49:55;;;;;;;;;;;7.90;99.90;;;;;;5062312;28;20306;-94
2023/10/26 06:52:20;;;;;;;;;;;7.80;99.90;;;;;;5043384;28;19931;-93
2023/10/26 06:54:47;;;;;;;;;;;7.80;99.90;;;;;;5025122;28;20375;-93
2023/10/26 06:57:13;;;;;;;;;;;7.80;99.90;;;;;;5059057;28;20022;-93
2023/10/26 06:59:38;;;;;;;;;;;7.80;99.90;;;;;;5025691;28;19921;-93
2023/10/26 07:02:04;;;;;;;;;;;7.70;99.90;;;;;;5039069;28;19921;-93
2023/10/26 07:04:30;;;;;;;;;;;7.70;99.90;;;;;;5023291;28;19925;-94
2023/10/26 07:06:55;;;;;;;;;;;7.70;99.90;;;;;;5023302;28;19921;-94
2023/10/26 07:09:21;;;;;;;;;;;7.70;99.90;;;;;;5024515;28;20349;-94
2023/10/26 07:11:47;;;;;;;;;;;7.70;99.90;;;;;;5025498;28;20015;-94
2023/10/26 07:14:13;;;;;;;;;;;7.70;99.90;;;;;;5041705;28;19921;-94
2023/10/26 07:16:38;;;;;;;;;;;7.50;99.90;;;;;;5023653;28;19943;-92
2023/10/26 07:19:04;;;;;;;;;;;7.70;99.90;;;;;;5028485;28;20291;-92
2023/10/26 07:21:33;;;;;;;;;;;7.80;99.90;;;;;;5045081;28;19927;-94
2023/10/26 07:23:59;;;;;;;;;;;7.80;99.90;;;;;;5028007;28;19921;-93
2023/10/26 07:26:25;;;;;;;;;;;7.80;99.90;;;;;;5041243;28;19927;-94
2023/10/26 07:28:50;;;;;;;;;;;7.80;99.90;;;;;;5041295;28;19921;-93
2023/10/26 07:31:20;;;;;;;;;;;7.90;99.90;;;;;;5024951;28;19921;-93
2023/10/26 07:33:45;;;;;;;;;;;7.90;99.90;;;;;;5042594;28;19928;-93
2023/10/26 07:36:11;;;;;;;;;;;8.00;99.90;;;;;;5040671;28;19924;-91
2023/10/26 07:38:37;;;;;;;;;;;8.10;99.90;;;;;;5055110;28;19955;-94
2023/10/26 07:41:04;;;;;;;;;;;8.20;99.90;;;;;;5061479;28;19927;-94
2023/10/26 07:43:31;;;;;;;;;;;8.30;99.90;;;;;;5058913;28;19986;-94
2023/10/26 07:45:56;;;;;;;;;;;8.40;99.90;;;;;;5057782;28;20022;-89
2023/10/26 07:48:22;;;;;;;;;;;8.50;99.90;;;;;;5042342;28;19964;-92
2023/10/26 07:50:48;;;;;;;;;;;8.60;99.90;;;;;;5039783;28;19925;-91
2023/10/26 07:53:14;;;;;;;;;;;8.70;99.90;;;;;;5043901;28;19920;-86
2023/10/26 07:55:40;;;;;;;;;;;8.70;99.90;;;;;;5057534;28;19921;-94
2023/10/26 07:58:05;;;;;;;;;;;8.70;99.90;;;;;;5055724;28;20422;-82
2023/10/26 08:00:31;;;;;;;;;;;8.80;99.90;;;;;;5036678;28;19982;-84
2023/10/26 08:02:58;;;;;;;;;;;8.80;99.90;;;;;;5056266;28;19960;-86
2023/10/26 08:05:23;;;;;;;;;;;8.80;99.90;;;;;;5055812;28;19933;-84
2023/10/26 08:07:49;;;;;;;;;;;8.90;99.90;;;;;;5021239;28;19974;-89
2023/10/26 08:10:15;;;;;;;;;;;8.80;99.90;;;;;;5027798;28;20432;-90
2023/10/26 08:12:40;;;;;;;;;;;8.90;99.90;;;;;;5042603;28;19928;-91
2023/10/26 08:15:07;;;;;;;;;;;8.90;99.90;;;;;;5040863;28;19920;-91
2023/10/26 08:17:35;;;;;;;;;;;8.90;99.90;;;;;;5041277;28;20279;-91
2023/10/26 08:20:01;;;;;;;;;;;8.90;99.90;;;;;;5041699;28;20132;-91
2023/10/26 08:22:28;;;;;;;;;;;9.00;99.90;;;;;;5056807;28;19932;-88
2023/10/26 08:24:53;;;;;;;;;;;9.10;99.90;;;;;;5021408;28;19924;-88
2023/10/26 08:27:19;;;;;;;;;;;9.10;99.90;;;;;;5043131;28;19926;-84
2023/10/26 08:29:44;;;;;;;;;;;9.10;99.90;;;;;;5072004;28;19921;-86
2023/10/26 08:32:10;;;;;;;;;;;9.10;99.90;;;;;;5037495;28;19994;-87
2023/10/26 08:34:36;;;;;;;;;;;9.10;99.90;;;;;;5021520;28;19951;-89
2023/10/26 08:37:02;;;;;;;;;;;9.10;99.90;;;;;;5019246;28;19920;-86
2023/10/26 08:39:28;;;;;;;;;;;9.10;99.90;;;;;;5046885;28;19921;-88
2023/10/26 08:41:58;;;;;;;;;;;9.10;99.90;;;;;;5054554;28;20322;-89
2023/10/26 08:44:24;;;;;;;;;;;9.10;99.90;;;;;;5027339;28;19931;-91
2023/10/26 08:46:51;;;;;;;;;;;9.20;99.90;;;;;;5037322;28;19920;-88
2023/10/26 08:49:17;;;;;;;;;;;9.20;99.90;;;;;;5023804;28;19975;-89
2023/10/26 08:51:43;;;;;;;;;;;9.30;99.90;;;;;;5058422;28;19941;-87
2023/10/26 08:54:09;;;;;;;;;;;9.30;99.90;;;;;;5061869;28;20358;-91
2023/10/26 08:56:34;;;;;;;;;;;9.40;99.90;;;;;;5057456;28;19927;-88
2023/10/26 08:59:02;;;;;;;;;;;9.40;99.90;;;;;;5054770;28;19919;-86
2023/10/26 09:01:28;;;;;;;;;;;9.30;99.90;;;;;;5048366;28;20287;-90
2023/10/26 09:03:54;;;;;;;;;;;9.30;99.90;;;;;;5065803;28;19920;-88
2023/10/26 09:06:19;;;;;;;;;;;9.30;99.90;;;;;;5053267;28;20015;-89
2023/10/26 09:08:58;;;;;;;;;;;9.30;99.90;;;;;;5057123;28;19921;-90
2023/10/26 09:11:25;;;;;;;;;;;9.30;99.90;;;;;;5080580;28;20311;-91
2023/10/26 09:13:52;;;;;;;;;;;9.30;99.90;;;;;;5044987;28;20577;-85
2023/10/26 09:16:18;;;;;;;;;;;9.30;99.90;;;;;;5065352;28;19931;-88
2023/10/26 09:18:53;;;;;;;;;;;9.30;99.90;;;;;;5046716;28;19920;-86
2023/10/26 09:21:18;;;;;;;;;;;9.40;99.90;;;;;;5060038;28;19927;-89
2023/10/26 09:23:45;;;;;;;;;;;9.40;99.90;;;;;;5071046;28;20622;-88
2023/10/26 09:26:11;;;;;;;;;;;9.50;99.90;;;;;;5073957;28;19930;-87
2023/10/26 09:28:49;;;;;;;;;;;9.50;99.90;;;;;;5059147;28;20007;-87
2023/10/26 09:31:15;;;;;;;;;;;9.20;99.90;;;;;;5061852;28;20090;-91
2023/10/26 09:33:41;;;;;;;;;;;9.50;99.90;;;;;;5063041;28;19960;-87
2023/10/26 09:36:14;;;;;;;;;;;9.90;99.90;;;;;;5042788;28;20332;-93
2023/10/26 09:38:40;;;;;;;;;;;9.80;99.90;;;;;;5061668;28;20299;-89
2023/10/26 09:41:07;;;;;;;;;;;10.90;99.90;;;;;;5058755;28;20314;-88
2023/10/26 09:43:33;;;;;;;;;;;9.70;99.90;;;;;;5058661;28;20344;-87
2023/10/26 09:45:59;;;;;;;;;;;9.80;99.90;;;;;;5060404;28;20367;-87
2023/10/26 09:48:25;;;;;;;;;;;9.60;99.90;;;;;;5075921;28;19928;-88
2023/10/26 09:50:52;;;;;;;;;;;10.10;99.90;;;;;;5054291;28;20459;-88
2023/10/26 09:53:19;;;;;;;;;;;10.00;99.90;;;;;;5059392;28;19924;-86
2023/10/26 09:55:45;;;;;;;;;;;;;;;;;;5039741;28;19927;-86
2023/10/26 09:58:11;;;;;;;;;;;10.00;99.90;;;;;;5039937;28;20295;-88
2023/10/26 10:00:37;;;;;;;;;;;10.00;99.90;;;;;;5038134;28;19932;-86
2023/10/26 10:03:09;;;;;;;;;;;9.90;99.90;;;;;;5052499;28;20359;-89
2023/10/26 10:05:37;;;;;;;;;;;9.90;99.90;;;;;;5047045;28;20887;-91
2023/10/26 10:08:02;;;;;;;;;;;10.00;99.90;;;;;;5045350;28;19924;-88
2023/10/26 10:10:28;;;;;;;;;;;9.20;99.90;;;;;;5045411;28;19927;-87
2023/10/26 10:12:54;;;;;;;;;;;10.10;99.90;;;;;;5035729;28;19999;-87
2023/10/26 10:15:32;;;;;;;;;;;10.10;99.90;;;;;;5024731;28;19983;-90
2023/10/26 10:17:57;;;;;;;;;;;9.40;99.90;;;;;;5062448;28;19959;-88
2023/10/26 10:20:25;;;;;;;;;;;10.20;99.90;;;;;;5034571;28;20017;-88
2023/10/26 10:22:53;;;;;;;;;;;10.20;99.90;;;;;;5037749;28;20228;-89
2023/10/26 10:25:19;;;;;;;;;;;10.80;99.90;;;;;;5043018;28;20022;-90
2023/10/26 10:27:47;;;;;;;;;;;10.20;99.90;;;;;;5042095;28;19963;-89
2023/10/26 10:30:13;;;;;;;;;;;10.10;99.90;;;;;;5041810;28;19963;-89
2023/10/26 10:32:48;;;;;;;;;;;10.10;99.90;;;;;;5021520;28;19983;-90
2023/10/26 10:35:32;;;;;;;;;;;10.10;99.90;;;;;;5050401;28;20628;-92
2023/10/26 10:38:13;;;;;;;;;;;10.10;99.90;;;;;;5049628;28;20374;-92
2023/10/26 10:40:40;;;;;;;;;;;10.10;99.90;;;;;;5056551;28;20408;-94
2023/10/26 10:43:05;;;;;;;;;;;10.10;99.90;;;;;;5019905;28;19931;-90
2023/10/26 10:45:31;;;;;;;;;;;10.10;99.90;;;;;;5021030;28;20388;-92
2023/10/26 10:47:57;;;;;;;;;;;10.10;99.90;;;;;;5040205;28;19989;-93
2023/10/26 10:50:26;;;;;;;;;;;10.10;99.90;;;;;;5058039;28;19921;-89
2023/10/26 10:52:53;;;;;;;;;;;10.00;99.90;;;;;;5079380;28;20286;-92
2023/10/26 10:55:26;;;;;;;;;;;10.10;99.90;;;;;;5063603;28;20414;-92
2023/10/26 10:57:53;;;;;;;;;;;10.10;99.90;;;;;;5058807;28;19967;-85
2023/10/26 11:00:19;;;;;;;;;;;10.00;99.90;;;;;;5053078;28;19920;-90
2023/10/26 11:02:46;;;;;;;;;;;9.00;99.90;;;;;;5052032;28;19920;-94
2023/10/26 11:05:13;;;;;;;;;;;10.00;99.90;;;;;;5045647;28;19924;-94
2023/10/26 11:07:39;;;;;;;;;;;10.00;99.90;;;;;;5039022;28;19943;-94
2023/10/26 11:10:05;;;;;;;;;;;10.00;99.90;;;;;;5060911;28;20359;-94
2023/10/26 11:12:30;;;;;;;;;;;10.10;99.90;;;;;;5032810;28;19920;-94
2023/10/26 11:14:56;;;;;;;;;;;10.10;99.90;;;;;;5041517;28;19964;-95
2023/10/26 11:17:22;;;;;;;;;;;8.10;99.90;;;;;;5077455;28;20379;-95
2023/10/26 11:19:49;;;;;;;;;;;10.10;99.90;;;;;;5050747;28;19926;-91
2023/10/26 11:22:15;;;;;;;;;;;10.30;99.90;;;;;;5058936;28;20019;-90
2023/10/26 11:24:41;;;;;;;;;;;10.20;99.90;;;;;;5042456;28;20003;-94
2023/10/26 11:27:07;;;;;;;;;;;;;;;;;;5042851;28;20031;-94
2023/10/26 11:29:33;;;;;;;;;;;10.40;99.90;;;;;;5069079;28;20412;-91
2023/10/26 11:31:58;;;;;;;;;;;10.60;99.90;;;;;;5054797;28;19936;-91
2023/10/26 11:34:27;;;;;;;;;;;10.30;99.90;;;;;;5036460;28;20381;-90
2023/10/26 11:36:53;;;;;;;;;;;10.50;99.90;;;;;;5073820;28;19925;-94
2023/10/26 11:39:19;;;;;;;;;;;10.40;99.90;;;;;;5041336;28;19921;-95
2023/10/26 11:41:45;;;;;;;;;;;;;;;;;;5067142;28;19927;-93
2023/10/26 11:44:27;;;;;;;;;;;10.40;99.90;;;;;;5077634;28;19928;-95
2023/10/26 11:46:57;;;;;;;;;;;10.30;99.90;;;;;;5040611;28;19921;-91
2023/10/26 11:49:35;;;;;;;;;;;10.30;99.90;;;;;;5057101;28;20019;-88
2023/10/26 11:52:01;;;;;;;;;;;10.30;99.90;;;;;;5058236;28;19967;-94
2023/10/26 11:54:27;;;;;;;;;;;10.20;99.90;;;;;;5064250;28;19924;-95
2023/10/26 11:56:52;;;;;;;;;;;10.30;99.90;;;;;;5064399;28;19920;-96
2023/10/26 11:59:18;;;;;;;;;;;9.10;99.90;;;;;;5047607;28;19927;-93
2023/10/26 12:01:44;;;;;;;;;;;10.20;99.90;;;;;;5049485;28;19966;-95
2023/10/26 12:04:13;;;;;;;;;;;9.90;99.90;;;;;;5050435;28;20295;-95
2023/10/26 12:06:38;;;;;;;;;;;10.20;99.90;;;;;;5055412;28;19969;-93
2023/10/26 12:09:06;;;;;;;;;;;10.30;99.90;;;;;;5060320;28;20313;-93
2023/10/26 12:11:32;;;;;;;;;;;10.60;99.90;;;;;;5046247;28;19920;-89
2023/10/26 12:13:57;;;;;;;;;;;10.40;99.90;;;;;;5062193;28;20895;-95
2023/10/26 12:16:25;;;;;;;;;;;10.50;99.90;;;;;;5080016;28;19919;-96
2023/10/26 12:18:51;;;;;;;;;;;10.10;99.90;;;;;;5069227;28;20344;-96
2023/10/26 12:21:17;;;;;;;;;;;10.50;99.90;;;;;;5072247;28;19955;-92
2023/10/26 12:23:43;;;;;;;;;;;9.90;99.90;;;;;;5055446;28;19963;-92
2023/10/26 12:26:09;;;;;;;;;;;10.20;99.90;;;;;;5059198;28;19932;-92
2023/10/26 12:28:34;;;;;;;;;;;10.60;99.90;;;;;;5059677;28;20024;-87
2023/10/26 12:31:00;;;;;;;;;;;10.80;99.90;;;;;;5044192;28;19924;-88
2023/10/26 12:33:27;;;;;;;;;;;10.80;99.90;;;;;;5083607;28;19920;-86
2023/10/26 12:35:53;;;;;;;;;;;11.50;99.90;;;;;;5063002;28;19923;-86
2023/10/26 12:38:23;;;;;;;;;;;10.60;99.90;;;;;;5073023;28;19927;-85
2023/10/26 12:40:49;;;;;;;;;;;10.80;99.90;;;;;;5063556;28;20285;-86
2023/10/26 12:43:15;;;;;;;;;;;9.70;99.90;;;;;;5066521;28;19926;-84
2023/10/26 12:45:40;;;;;;;;;;;10.70;99.90;;;;;;5079955;28;20006;-85
2023/10/26 12:48:06;;;;;;;;;;;10.70;99.90;;;;;;5077311;28;19920;-84
2023/10/26 12:50:32;;;;;;;;;;;10.80;99.90;;;;;;5058963;28;19924;-86
2023/10/26 12:53:04;;;;;;;;;;;10.80;99.90;;;;;;5053598;28;19978;-84
2023/10/26 12:55:29;;;;;;;;;;;10.90;99.90;;;;;;5039555;28;20023;-90
2023/10/26 12:57:55;;;;;;;;;;;10.90;99.90;;;;;;5075547;28;20372;-86
2023/10/26 13:00:21;;;;;;;;;;;10.90;99.90;;;;;;5075880;28;20018;-84
2023/10/26 13:02:47;;;;;;;;;;;11.00;99.90;;;;;;5060462;28;19921;-87
2023/10/26 13:05:12;;;;;;;;;;;11.00;99.90;;;;;;5055255;28;20320;-86
2023/10/26 13:07:38;;;;;;;;;;;10.90;99.90;;;;;;5058606;28;19927;-86
2023/10/26 13:10:05;;;;;;;;;;;11.00;99.90;;;;;;5053566;28;19925;-85
2023/10/26 13:12:31;;;;;;;;;;;11.00;99.90;;;;;;5054685;28;19928;-86
2023/10/26 13:14:57;;;;;;;;;;;10.90;99.90;;;;;;5046906;28;19968;-87
2023/10/26 13:17:22;;;;;;;;;;;10.90;99.90;;;;;;5064927;28;19927;-87
2023/10/26 13:19:48;;;;;;;;;;;11.00;99.90;;;;;;5058125;28;19924;-86
2023/10/26 13:22:14;;;;;;;;;;;11.10;99.90;;;;;;5042502;28;20399;-85
2023/10/26 13:24:39;;;;;;;;;;;11.10;99.90;;;;;;5040624;28;19925;-88
2023/10/26 13:27:05;;;;;;;;;;;11.10;99.90;;;;;;5046274;28;20390;-86
2023/10/26 13:29:31;;;;;;;;;;;11.10;99.90;;;;;;5042127;28;19928;-88
2023/10/26 13:31:57;;;;;;;;;;;11.10;99.90;;;;;;5054516;28;19928;-88
2023/10/26 13:34:23;;;;;;;;;;;11.10;99.90;;;;;;5060320;28;20251;-87
2023/10/26 13:36:48;;;;;;;;;;;11.10;99.90;;;;;;5046757;28;19920;-87
2023/10/26 13:39:14;;;;;;;;;;;12.20;99.90;;;;;;5060578;28;19919;-86
2023/10/26 13:41:40;;;;;;;;;;;11.10;99.90;;;;;;5040413;28;20011;-87
2023/10/26 13:44:05;;;;;;;;;;;11.10;99.90;;;;;;5053623;28;20014;-85
2023/10/26 13:46:32;;;;;;;;;;;11.10;99.90;;;;;;5053108;28;19920;-87
2023/10/26 13:48:57;;;;;;;;;;;11.10;99.90;;;;;;5054704;28;19931;-83
2023/10/26 13:51:23;;;;;;;;;;;11.10;99.90;;;;;;5021932;28;19928;-81
2023/10/26 13:53:49;;;;;;;;;;;11.10;99.90;;;;;;5053661;28;19920;-82
2023/10/26 13:56:14;;;;;;;;;;;11.10;99.90;;;;;;5029754;28;19970;-89
2023/10/26 13:58:40;;;;;;;;;;;11.10;99.90;;;;;;5044929;28;19928;-85
2023/10/26 14:01:12;;;;;;;;;;;11.10;99.90;;;;;;5026549;28;20364;-88
2023/10/26 14:03:38;;;;;;;;;;;11.10;99.90;;;;;;5034680;28;20394;-89
2023/10/26 14:06:04;;;;;;;;;;;11.10;99.90;;;;;;5039718;28;19925;-90
2023/10/26 14:08:29;;;;;;;;;;;11.10;99.90;;;;;;5038275;28;20337;-88
2023/10/26 14:10:55;;;;;;;;;;;11.10;99.90;;;;;;5054833;28;19920;-90
2023/10/26 14:13:20;;;;;;;;;;;11.10;99.90;;;;;;5045037;28;19920;-86
2023/10/26 14:15:46;;;;;;;;;;;11.20;99.90;;;;;;5052368;28;19921;-88
2023/10/26 14:18:12;;;;;;;;;;;11.20;99.90;;;;;;5018509;28;19999;-87
2023/10/26 14:20:37;;;;;;;;;;;11.20;99.90;;;;;;5048370;28;20290;-88
2023/10/26 14:23:04;;;;;;;;;;;11.20;99.90;;;;;;5032820;28;19978;-90